Flight Track Log - Related Links

Times and Time Zones

All times are in EDT time to prevent confusion due to time zone crossing. See the RPA3446 flight status page for this flight to view local times or setup timezone preferences in your user account.

Time Position Orientation Groundspeed Altitude Reporting Facility
EDT Latitude Longitude Course Direction KTS MPH feet Rate Location/Type
Sat 01:48:32 PM 42.2039 -83.3697 180° South 149 171 1,300  Level Cleveland Center
Sat 01:49:58 PM 42.1281 -83.3983 196° South 229 264 4,100 2,255 Climbing Cleveland Center
Sat 01:51:09 PM 42.0519 -83.4114 187° South 252 290 7,200 2,797 Climbing Cleveland Center
Sat 01:52:00 PM 41.8116 -83.2016 180° South  Level Estimated
Sat 01:52:11 PM 41.9753 -83.3978 172° South 272 313 10,300  Level Cleveland Center
Sat 01:53:00 PM 41.7114 -83.1639 180° South  Level Estimated
Sat 01:53:13 PM 41.8894 -83.3817 172° South 312 359 12,200  Level Cleveland Center
Sat 01:54:15 PM 41.7917 -83.3633 172° South 327 376 14,900 2,419 Climbing Cleveland Center
Sat 01:55:17 PM 41.6986 -83.3472 173° South 332 382 17,200 1,984 Climbing Cleveland Center
Sat 01:56:19 PM 41.6025 -83.3364 175° South 343 395 19,000 1,854 Climbing Cleveland Center
Sat 01:57:20 PM 41.5031 -83.3431 183° South 354 407 21,000 1,902 Climbing Cleveland Center
Sat 01:58:22 PM 41.4047 -83.3764 194° South 361 415 22,900 1,694 Climbing Cleveland Center
Sat 01:59:24 PM 41.3064 -83.4125 195° South 363 418 24,500 1,403 Climbing Cleveland Center
Sat 02:00:26 PM 41.2044 -83.4478 195° South 373 429 25,800 1,306 Climbing Cleveland Center
Sat 02:01:28 PM 41.0847 -83.4897 195° South 384 442 27,200 1,256 Climbing Cleveland Center
Sat 02:03:18 PM 40.8997 -83.5544 195° South 398 458 29,400 1,158 Climbing Indianapolis Center
Sat 02:04:19 PM 40.7683 -83.5997 195° South 405 466 30,500 870 Climbing Indianapolis Center
Sat 02:05:36 PM 40.6331 -83.6469 195° South 417 480 31,400 732 Climbing Cleveland Center
Sat 02:06:22 PM 40.5419 -83.6781 195° South 419 482 32,000 889 Climbing Indianapolis Center
Sat 02:07:24 PM 40.4239 -83.6664 176° South 434 499 33,000 484 Climbing Indianapolis Center
Sat 02:08:26 PM 40.3089 -83.6189 163° South 431 496 33,000  Level Indianapolis Center
Sat 02:09:27 PM 40.1936 -83.5733 163° South 431 496 33,000  Level Indianapolis Center
Sat 02:10:29 PM 40.0789 -83.5264 163° South 432 497 33,000  Level Indianapolis Center
Sat 02:11:30 PM 39.9642 -83.4800 163° South 431 496 33,000  Level Indianapolis Center
Sat 02:12:32 PM 39.8242 -83.4231 163° South 432 497 33,000  Level Indianapolis Center
Sat 02:13:33 PM 39.7217 -83.3828 163° South 433 498 33,000  Level Indianapolis Center
Sat 02:14:35 PM 39.6072 -83.3378 163° South 433 498 33,000  Level Indianapolis Center
Sat 02:15:36 PM 39.4711 -83.2831 163° South 430 495 33,000  Level Indianapolis Center
Sat 02:16:38 PM 39.3561 -83.2378 163° South 430 495 33,000  Level Indianapolis Center
Sat 02:17:39 PM 39.2481 -83.1731 155° Southeast 431 496 33,000  Level Indianapolis Center
Sat 02:18:40 PM 39.1494 -83.1044 152° Southeast 434 499 33,000  Level Indianapolis Center
Sat 02:19:42 PM 39.0439 -83.0281 151° Southeast 434 499 33,000  Level Indianapolis Center
Sat 02:20:43 PM 38.9153 -82.9356 151° Southeast 439 505 33,000  Level Indianapolis Center
Sat 02:21:45 PM 38.8072 -82.8578 151° Southeast 440 506 33,000  Level Indianapolis Center
Sat 02:22:46 PM 38.6972 -82.7783 151° Southeast 449 517 33,000  Level Indianapolis Center
Sat 02:23:47 PM 38.5967 -82.7061 151° Southeast 449 517 33,000  Level Indianapolis Center
Sat 02:24:49 PM 38.4689 -82.6125 150° Southeast 450 518 33,000  Level Indianapolis Center
Sat 02:25:50 PM 38.3586 -82.5317 150° Southeast 451 519 33,000  Level Indianapolis Center
Sat 02:26:51 PM 38.2608 -82.4594 150° Southeast 452 520 33,000  Level Indianapolis Center
Sat 02:27:53 PM 38.1508 -82.3803 150° Southeast 453 521 33,000  Level Indianapolis Center
Sat 02:28:54 PM 38.0289 -82.2906 150° Southeast 453 521 33,000  Level Indianapolis Center
Sat 02:29:55 PM 37.9142 -82.2256 156° South 453 521 33,000 -344 Level Indianapolis Center
Sat 02:30:56 PM 37.7956 -82.1703 160° South 452 520 32,300 -829 Descending Indianapolis Center
Sat 02:31:58 PM 37.6769 -82.1172 161° South 452 520 31,300 -976 Descending Indianapolis Center
Sat 02:32:59 PM 37.5581 -82.0661 161° South 452 520 30,300 -984 Descending Indianapolis Center
Sat 02:34:00 PM 37.4386 -82.0381 169° South 447 514 29,300 -634 Descending Indianapolis Center
Sat 02:35:02 PM 37.3017 -82.0511 184° South 427 491 29,000 -146 Descending Indianapolis Center
Sat 02:36:03 PM 37.1828 -82.0622 184° South 425 489 29,000  Level Indianapolis Center
Sat 02:37:04 PM 37.0611 -82.0736 184° South 429 494 29,000 -537 Level Indianapolis Center
Sat 02:38:06 PM 36.9375 -82.0836 184° South 437 503 27,900 -1,268 Descending Indianapolis Center
Sat 02:39:07 PM 36.8178 -82.0956 185° South 436 502 26,400 -1,415 Descending Indianapolis Center
Sat 02:40:09 PM 36.7069 -82.1375 197° South 419 482 25,000 -683 Descending Indianapolis Center
Sat 02:41:10 PM 36.5992 -82.1781 197° South 409 471 25,000 -492 Level Indianapolis Center
Sat 02:42:11 PM 36.4922 -82.2178 197° South 404 465 24,000 -488 Descending Indianapolis Center
Sat 02:43:13 PM 36.3847 -82.1803 164° South 406 467 24,000  Level Indianapolis Center
Sat 02:44:14 PM 36.2878 -82.1042 148° Southeast 409 471 24,000 -98 Level Indianapolis Center
Sat 02:45:15 PM 36.1922 -82.0275 147° Southeast 409 471 23,800 -1,317 Descending Indianapolis Center
Sat 02:46:17 PM 36.0789 -81.9419 149° Southeast 409 471 21,300 -2,042 Descending Indianapolis Center
Sat 02:47:39 PM 35.9639 -81.8581 149° Southeast 396 456 18,900 -1,817 Descending Atlanta Center
Sat 02:48:39 PM 35.8772 -81.7939 149° Southeast 386 444 17,000 -2,163 Descending Atlanta Center
Sat 02:49:05 PM 35.8286 -81.7592 150° Southeast 365 420 15,800 -1,900 Descending Atlanta Center
Sat 02:49:39 PM 35.7925 -81.7269 144° Southeast 374 430 15,100 -1,660 Descending Atlanta Center
Sat 02:50:39 PM 35.7119 -81.6653 148° Southeast 361 415 13,200 -2,000 Descending Atlanta Center
Sat 02:51:39 PM 35.6231 -81.5989 149° Southeast 350 403 11,100 -1,886 Descending Atlanta Center
Sat 02:51:49 PM 35.6125 -81.5917 151° Southeast 327 376 11,000 -100 Descending Atlanta Center
Sat 02:52:39 PM 35.5694 -81.5239 128° Southeast 300 345 11,000 -197 Level Atlanta Center
Sat 02:52:50 PM 35.5650 -81.5114 114° Southeast 287 330 10,800 -1,700 Descending Atlanta Center
Sat 02:53:39 PM 35.5508 -81.4275 102° East 284 327 9,300 -1,770 Descending Atlanta Center
Sat 02:53:51 PM 35.5481 -81.4047 99° East 287 330 9,000 -1,600 Descending Atlanta Center
Sat 02:54:39 PM 35.5422 -81.3308 96° East 279 321 7,700 -1,377 Descending Atlanta Center
Sat 02:54:52 PM 35.5419 -81.3103 91° East 281 323 7,600 -400 Descending Atlanta Center
Sat 02:55:39 PM 35.5361 -81.2442 96° East 273 314 7,300 -590 Descending Atlanta Center
Sat 02:55:53 PM 35.5378 -81.2264 83° East 236 272 7,000 -1,054 Descending Atlanta Center
Sat 02:56:53 PM 35.5342 -81.1500 93° East 219 252 6,000 -566 Descending Atlanta Center
Sat 02:57:39 PM 35.5306 -81.0886 94° East 232 267 6,000  Level Atlanta Center
Sat 02:57:54 PM 35.5303 -81.0733 91° East 226 260 6,000  Level Atlanta Center
Sat 02:58:39 PM 35.5122 -81.0206 113° Southeast 221 254 6,000 -393 Level Atlanta Center
Sat 02:58:55 PM 35.4953 -81.0108 155° Southeast 227 261 5,600 -1,325 Descending Atlanta Center
Sat 02:59:56 PM 35.4364 -80.9903 164° South 221 254 4,300 -836 Descending Atlanta Center
Sat 03:00:57 PM 35.3881 -80.9842 174° South 170 196 3,900 -639 Descending Atlanta Center
Sat 03:01:58 PM 35.3400 -80.9783 174° South 165 190 3,000 -836 Descending Atlanta Center
Sat 03:02:59 PM 35.2961 -80.9775 179° South 156 180 2,200 -787 Descending Atlanta Center
Sat 03:04:00 PM 35.2564 -80.9739 176° South 137 158 1,400 -787 Descending Atlanta Center
Sat 03:05:00 PM 35.2137 -80.9491 155° Southeast  Level Estimated
Sat 03:12:00 PM 35.2137 -80.9491 39° Northeast  Level Estimated
Sat 03:13:00 PM 35.2137 -80.9491 39° Northeast  Level Estimated

Login

Don't have an account? Register now (free) for customized features, flight alerts, and more!